createdAt,value
2022-10-17T00:01:26.866Z,100.00
2022-10-17T00:03:55.445Z,100.00
2022-10-17T00:06:24.533Z,100.00
2022-10-17T00:08:52.936Z,100.00
2022-10-17T00:11:24.491Z,100.00
2022-10-17T00:13:55.507Z,100.00
2022-10-17T00:16:29.481Z,100.00
2022-10-17T00:18:59.510Z,100.00
2022-10-17T00:21:28.855Z,100.00
2022-10-17T00:23:57.608Z,100.00
2022-10-17T00:26:28.966Z,100.00
2022-10-17T00:28:58.785Z,100.00
2022-10-17T00:31:27.892Z,100.00
2022-10-17T00:33:56.762Z,100.00
2022-10-17T00:36:26.934Z,100.00
2022-10-17T00:38:57.612Z,100.00
2022-10-17T00:41:34.089Z,100.00
2022-10-17T00:44:05.457Z,100.00
2022-10-17T00:46:35.958Z,100.00
2022-10-17T00:49:08.372Z,100.00
2022-10-17T00:51:42.707Z,100.00
2022-10-17T00:54:13.196Z,100.00
2022-10-17T00:56:44.098Z,100.00
2022-10-17T00:59:15.314Z,100.00
2022-10-17T01:01:47.708Z,100.00
2022-10-17T01:04:16.696Z,100.00
2022-10-17T01:06:45.107Z,100.00
2022-10-17T01:09:13.776Z,100.00
2022-10-17T01:11:51.373Z,100.00
2022-10-17T01:14:28.148Z,100.00
2022-10-17T01:17:06.157Z,100.00
2022-10-17T01:19:53.902Z,100.00
2022-10-17T01:22:29.145Z,100.00
2022-10-17T01:25:20.440Z,100.00
2022-10-17T01:28:10.100Z,100.00
2022-10-17T01:30:58.129Z,100.00
2022-10-17T01:33:36.760Z,100.00
2022-10-17T01:36:13.269Z,100.00
2022-10-17T01:38:49.753Z,100.00
2022-10-17T01:41:26.613Z,100.00
2022-10-17T01:44:01.727Z,100.00
2022-10-17T01:46:35.250Z,100.00
2022-10-17T01:49:06.035Z,100.00
2022-10-17T01:51:40.236Z,100.00
2022-10-17T01:54:15.376Z,100.00
2022-10-17T01:56:45.929Z,100.00
2022-10-17T01:59:19.530Z,100.00
2022-10-17T02:01:53.648Z,100.00
2022-10-17T02:04:22.610Z,100.00
2022-10-17T02:06:51.109Z,100.00
2022-10-17T02:09:22.166Z,100.00
2022-10-17T02:12:19.867Z,100.00
2022-10-17T02:15:02.710Z,100.00
2022-10-17T02:17:46.686Z,100.00
2022-10-17T02:20:23.278Z,100.00
2022-10-17T02:22:59.226Z,100.00
2022-10-17T02:25:38.674Z,100.00
2022-10-17T02:28:20.835Z,100.00
2022-10-17T02:30:55.236Z,100.00
2022-10-17T02:33:30.167Z,100.00
2022-10-17T02:36:03.108Z,100.00
2022-10-17T02:38:33.907Z,100.00
2022-10-17T02:41:03.269Z,100.00
2022-10-17T02:43:31.952Z,100.00
2022-10-17T02:46:01.006Z,100.00
2022-10-17T02:48:38.834Z,100.00
2022-10-17T02:51:17.872Z,100.00
2022-10-17T02:53:54.995Z,100.00
2022-10-17T02:56:26.037Z,100.00
2022-10-17T02:58:58.693Z,100.00
2022-10-17T03:01:27.722Z,100.00
2022-10-17T03:04:09.310Z,100.00
2022-10-17T03:06:37.664Z,100.00
2022-10-17T03:09:06.384Z,100.00
2022-10-17T03:11:34.794Z,100.00
2022-10-17T03:14:03.329Z,100.00
2022-10-17T03:16:32.215Z,100.00
2022-10-17T03:19:00.653Z,100.00
2022-10-17T03:21:31.064Z,100.00
2022-10-17T03:23:59.761Z,100.00
2022-10-17T03:26:29.834Z,100.00
2022-10-17T03:28:58.625Z,100.00
2022-10-17T03:31:27.293Z,100.00
2022-10-17T03:33:55.710Z,100.00
2022-10-17T03:36:24.348Z,100.00
2022-10-17T03:38:56.859Z,100.00
2022-10-17T03:41:26.706Z,100.00
2022-10-17T03:43:55.459Z,100.00
2022-10-17T03:46:24.394Z,100.00
2022-10-17T03:48:52.816Z,100.00
2022-10-17T03:51:21.384Z,100.00
2022-10-17T03:53:49.943Z,100.00
2022-10-17T03:56:22.590Z,100.00
2022-10-17T03:58:51.353Z,100.00
2022-10-17T04:01:21.077Z,100.00
2022-10-17T04:03:50.752Z,100.00
2022-10-17T04:06:21.244Z,100.00
2022-10-17T04:08:50.296Z,100.00
2022-10-17T04:11:22.790Z,100.00
2022-10-17T04:13:54.919Z,100.00
2022-10-17T04:16:24.539Z,100.00
2022-10-17T04:18:56.024Z,100.00
2022-10-17T04:21:25.384Z,100.00
2022-10-17T04:23:57.249Z,100.00
2022-10-17T04:26:27.760Z,100.00
2022-10-17T04:28:56.303Z,100.00
2022-10-17T04:31:25.017Z,100.00
2022-10-17T04:33:53.466Z,100.00
2022-10-17T04:36:23.224Z,100.00
2022-10-17T04:38:51.566Z,100.00
2022-10-17T04:41:20.683Z,100.00
2022-10-17T04:43:51.499Z,100.00
2022-10-17T04:46:19.955Z,100.00
2022-10-17T04:48:48.276Z,100.00
2022-10-17T04:51:21.789Z,100.00
2022-10-17T04:53:54.242Z,100.00
2022-10-17T04:56:24.326Z,100.00
2022-10-17T04:58:54.509Z,100.00
2022-10-17T05:01:24.534Z,100.00
2022-10-17T05:03:53.798Z,100.00
2022-10-17T05:06:26.144Z,100.00
2022-10-17T05:08:54.772Z,100.00
2022-10-17T05:11:25.536Z,100.00
2022-10-17T05:13:56.735Z,100.00
2022-10-17T05:16:25.761Z,100.00
2022-10-17T05:18:59.325Z,100.00
2022-10-17T05:21:29.330Z,100.00
2022-10-17T05:23:57.849Z,100.00
2022-10-17T05:26:27.394Z,100.00
2022-10-17T05:28:57.479Z,100.00
2022-10-17T05:31:26.031Z,100.00
2022-10-17T05:33:54.637Z,100.00
2022-10-17T05:36:23.132Z,100.00
2022-10-17T05:38:52.922Z,100.00
2022-10-17T05:41:22.550Z,100.00
2022-10-17T05:43:51.039Z,100.00
2022-10-17T05:46:20.874Z,100.00
2022-10-17T05:48:49.394Z,100.00
2022-10-17T05:51:19.852Z,100.00
2022-10-17T05:53:48.287Z,100.00
2022-10-17T05:56:17.112Z,100.00
2022-10-17T05:58:50.415Z,100.00
2022-10-17T06:01:21.132Z,100.00
2022-10-17T06:03:49.542Z,100.00
2022-10-17T06:06:19.089Z,100.00
2022-10-17T06:08:47.976Z,100.00
2022-10-17T06:11:17.183Z,100.00
2022-10-17T06:13:45.565Z,100.00
2022-10-17T06:16:14.055Z,100.00
2022-10-17T06:18:44.053Z,100.00
2022-10-17T06:21:14.135Z,100.00
2022-10-17T06:23:42.577Z,100.00
2022-10-17T06:26:12.025Z,100.00
2022-10-17T06:28:41.931Z,100.00
2022-10-17T06:31:13.803Z,100.00
2022-10-17T06:33:56.661Z,100.00
2022-10-17T06:36:34.228Z,100.00
2022-10-17T06:39:12.397Z,100.00
2022-10-17T06:41:43.950Z,100.00
2022-10-17T06:44:13.109Z,100.00
2022-10-17T06:46:45.293Z,100.00
2022-10-17T06:49:15.290Z,100.00
2022-10-17T06:51:46.761Z,100.00
2022-10-17T06:54:15.209Z,100.00
2022-10-17T06:56:44.172Z,100.00
2022-10-17T06:59:12.918Z,100.00
2022-10-17T07:01:43.201Z,100.00
2022-10-17T07:04:16.508Z,100.00
2022-10-17T07:06:46.307Z,100.00
2022-10-17T07:09:20.688Z,100.00
2022-10-17T07:11:49.416Z,100.00
2022-10-17T07:14:19.295Z,100.00
2022-10-17T07:16:48.174Z,100.00
2022-10-17T07:19:18.337Z,100.00
2022-10-17T07:21:49.201Z,100.00
2022-10-17T07:24:18.769Z,100.00
2022-10-17T07:26:50.428Z,100.00
2022-10-17T07:29:28.267Z,100.00
2022-10-17T07:31:56.605Z,100.00
2022-10-17T07:34:27.790Z,100.00
2022-10-17T07:36:57.217Z,100.00
2022-10-17T07:39:25.915Z,100.00
2022-10-17T07:41:54.154Z,100.00
2022-10-17T07:44:22.939Z,100.00
2022-10-17T07:46:51.998Z,100.00
2022-10-17T07:49:20.390Z,100.00
2022-10-17T07:51:51.049Z,100.00
2022-10-17T07:54:19.917Z,100.00
2022-10-17T07:56:50.854Z,100.00
2022-10-17T07:59:20.574Z,100.00
2022-10-17T08:01:49.531Z,100.00
2022-10-17T08:04:18.373Z,100.00
2022-10-17T08:06:47.100Z,100.00
2022-10-17T08:09:17.654Z,100.00
2022-10-17T08:11:46.362Z,100.00
2022-10-17T08:14:16.934Z,100.00
2022-10-17T08:16:45.569Z,100.00
2022-10-17T08:19:14.281Z,100.00
2022-10-17T08:21:44.000Z,100.00
2022-10-17T08:24:12.365Z,100.00
2022-10-17T08:26:44.600Z,100.00
2022-10-17T08:29:15.899Z,100.00
2022-10-17T08:31:47.777Z,100.00
2022-10-17T08:34:17.881Z,100.00
2022-10-17T08:36:46.873Z,100.00
2022-10-17T08:39:15.291Z,100.00
2022-10-17T08:41:59.843Z,100.00
2022-10-17T08:44:41.260Z,100.00
2022-10-17T08:47:14.796Z,100.00
2022-10-17T08:49:49.038Z,100.00
2022-10-17T08:52:27.397Z,100.00
2022-10-17T08:54:56.126Z,100.00
2022-10-17T08:57:26.388Z,100.00
2022-10-17T08:59:56.905Z,100.00
2022-10-17T09:02:46.354Z,100.00
2022-10-17T09:05:38.491Z,100.00
2022-10-17T09:08:16.018Z,100.00
2022-10-17T09:10:57.409Z,100.00
2022-10-17T09:13:42.272Z,100.00
2022-10-17T09:16:22.055Z,100.00
2022-10-17T09:19:01.506Z,100.00
2022-10-17T09:21:42.359Z,100.00
2022-10-17T09:24:18.380Z,100.00
2022-10-17T09:26:48.508Z,100.00
2022-10-17T09:29:23.064Z,100.00
2022-10-17T09:32:02.342Z,100.00
2022-10-17T09:34:34.081Z,100.00
2022-10-17T09:37:03.976Z,100.00
2022-10-17T09:39:33.481Z,100.00
2022-10-17T09:42:03.104Z,100.00
2022-10-17T09:44:35.195Z,100.00
2022-10-17T09:47:22.375Z,100.00
2022-10-17T09:49:52.784Z,100.00
2022-10-17T09:52:29.999Z,100.00
2022-10-17T09:55:05.848Z,100.00
2022-10-17T09:57:54.855Z,100.00
2022-10-17T10:00:27.218Z,100.00
2022-10-17T10:03:12.091Z,100.00
2022-10-17T10:05:41.556Z,100.00
2022-10-17T10:08:17.528Z,100.00
2022-10-17T10:10:46.885Z,100.00
2022-10-17T10:13:21.582Z,100.00
2022-10-17T10:15:52.419Z,100.00
2022-10-17T10:18:33.226Z,100.00
2022-10-17T10:21:08.279Z,100.00
2022-10-17T10:23:40.515Z,100.00
2022-10-17T10:26:28.629Z,100.00
2022-10-17T10:29:01.044Z,100.00
2022-10-17T10:31:38.461Z,100.00
2022-10-17T10:34:20.045Z,100.00
2022-10-17T10:36:58.569Z,100.00
2022-10-17T10:39:44.934Z,100.00
2022-10-17T10:42:24.172Z,100.00
2022-10-17T10:44:54.927Z,100.00
2022-10-17T10:47:28.467Z,100.00
2022-10-17T10:50:18.944Z,100.00
2022-10-17T10:52:57.145Z,100.00
2022-10-17T10:55:31.618Z,100.00
2022-10-17T10:58:10.104Z,100.00
2022-10-17T11:00:40.336Z,100.00
2022-10-17T11:03:18.701Z,100.00
2022-10-17T11:05:52.418Z,100.00
2022-10-17T11:08:28.560Z,100.00
2022-10-17T11:11:18.203Z,100.00
2022-10-17T11:13:54.125Z,100.00
2022-10-17T11:16:34.609Z,100.00
2022-10-17T11:19:14.909Z,100.00
2022-10-17T11:21:48.966Z,100.00
2022-10-17T11:24:25.154Z,100.00
2022-10-17T11:26:59.765Z,100.00
2022-10-17T11:29:31.457Z,100.00
2022-10-17T11:32:04.975Z,100.00
2022-10-17T11:34:41.664Z,100.00
2022-10-17T11:37:17.418Z,100.00
2022-10-17T11:39:52.181Z,100.00
2022-10-17T11:42:25.666Z,100.00
2022-10-17T11:45:02.143Z,100.00
2022-10-17T11:47:39.395Z,100.00
2022-10-17T11:53:15.009Z,100.00
2022-10-17T11:55:45.789Z,100.00
2022-10-17T11:58:27.051Z,100.00
2022-10-17T12:01:02.794Z,100.00
2022-10-17T12:03:48.694Z,100.00
2022-10-17T12:06:38.890Z,100.00
2022-10-17T12:09:14.981Z,100.00
2022-10-17T12:11:54.351Z,100.00
2022-10-17T12:14:53.124Z,100.00
2022-10-17T12:17:30.721Z,100.00
2022-10-17T12:20:34.757Z,100.00
2022-10-17T12:23:29.723Z,100.00
2022-10-17T12:26:04.922Z,100.00
2022-10-17T12:28:35.337Z,100.00
2022-10-17T12:31:07.426Z,100.00
2022-10-17T12:33:39.526Z,100.00
2022-10-17T12:36:48.623Z,100.00
2022-10-17T12:39:46.731Z,100.00
2022-10-17T12:42:48.950Z,100.00
2022-10-17T12:45:50.623Z,100.00
2022-10-17T12:48:51.527Z,100.00
2022-10-17T12:51:37.920Z,100.00
2022-10-17T12:54:14.137Z,100.00
2022-10-17T12:56:45.290Z,100.00
2022-10-17T12:59:19.009Z,100.00
2022-10-17T13:01:50.557Z,100.00
2022-10-17T13:04:20.284Z,100.00
2022-10-17T13:06:50.505Z,100.00
2022-10-17T13:09:26.035Z,100.00
2022-10-17T13:11:55.715Z,100.00
2022-10-17T13:14:27.342Z,100.00
2022-10-17T13:17:01.401Z,100.00
2022-10-17T13:19:32.747Z,100.00
2022-10-17T13:22:07.047Z,100.00
2022-10-17T13:24:39.472Z,100.00
2022-10-17T13:27:23.377Z,100.00
2022-10-17T13:29:57.850Z,100.00
2022-10-17T13:32:28.866Z,100.00
2022-10-17T13:35:08.567Z,100.00
2022-10-17T13:37:40.822Z,100.00
2022-10-17T13:40:44.146Z,100.00
2022-10-17T13:43:17.547Z,100.00
2022-10-17T13:45:51.626Z,100.00
2022-10-17T13:48:24.359Z,100.00
2022-10-17T13:50:57.184Z,100.00
2022-10-17T13:53:32.789Z,100.00
2022-10-17T13:56:26.395Z,100.00
2022-10-17T13:58:57.458Z,100.00
2022-10-17T14:01:30.933Z,100.00
2022-10-17T14:04:08.855Z,100.00
2022-10-17T14:06:47.600Z,100.00
2022-10-17T14:09:23.741Z,100.00
2022-10-17T14:12:05.574Z,100.00
2022-10-17T14:14:51.963Z,100.00
2022-10-17T14:17:27.942Z,100.00
2022-10-17T14:20:16.527Z,100.00
2022-10-17T14:23:04.394Z,100.00
2022-10-17T14:25:41.193Z,100.00
2022-10-17T14:28:17.258Z,100.00
2022-10-17T14:30:56.846Z,100.00
2022-10-17T14:33:30.816Z,100.00
2022-10-17T14:36:01.575Z,100.00
2022-10-17T14:38:31.286Z,100.00
2022-10-17T14:41:40.835Z,99.77
2022-10-17T14:43:59.658Z,99.97
2022-10-17T14:46:30.360Z,97.51
2022-10-17T14:49:23.245Z,95.28
2022-10-17T14:52:29.861Z,92.88
2022-10-17T14:55:00.558Z,92.67
2022-10-17T14:57:42.490Z,90.66
2022-10-17T15:00:17.249Z,89.45
2022-10-17T15:02:46.566Z,89.30
2022-10-17T15:05:18.500Z,83.70
2022-10-17T15:07:48.938Z,80.48
2022-10-17T15:10:36.142Z,81.29
2022-10-17T15:15:54.561Z,90.53
2022-10-17T15:18:23.632Z,98.55
2022-10-17T15:21:04.537Z,98.68
2022-10-17T15:23:35.740Z,99.58
2022-10-17T15:26:04.523Z,92.57
2022-10-17T15:28:34.643Z,90.50
2022-10-17T15:31:05.298Z,88.91
2022-10-17T15:33:34.380Z,87.87
2022-10-17T15:36:06.048Z,85.66
2022-10-17T15:38:35.739Z,86.59
2022-10-17T15:41:04.106Z,88.63
2022-10-17T15:43:33.880Z,88.49
2022-10-17T15:46:03.943Z,88.29
2022-10-17T15:48:33.878Z,88.18
2022-10-17T15:51:02.334Z,83.27
2022-10-17T15:53:33.343Z,88.02
2022-10-17T15:56:02.226Z,94.25
2022-10-17T15:58:37.131Z,99.91
2022-10-17T16:01:07.686Z,100.00
2022-10-17T16:03:35.992Z,100.00
2022-10-17T16:06:05.112Z,100.00
2022-10-17T16:08:35.392Z,100.00
2022-10-17T16:11:06.289Z,100.00
2022-10-17T16:13:54.230Z,100.00
2022-10-17T16:16:23.126Z,100.00
2022-10-17T16:19:30.359Z,100.00
2022-10-17T16:22:26.805Z,100.00
2022-10-17T16:25:07.886Z,100.00
2022-10-17T16:28:12.307Z,100.00
2022-10-17T16:30:46.501Z,100.00
2022-10-17T16:33:50.433Z,100.00
2022-10-17T16:36:29.607Z,100.00
2022-10-17T16:39:06.825Z,100.00
2022-10-17T16:41:46.276Z,100.00
2022-10-17T16:44:15.244Z,100.00
2022-10-17T16:46:52.843Z,100.00
2022-10-17T16:49:58.039Z,100.00
2022-10-17T16:56:10.022Z,100.00
2022-10-17T16:58:52.867Z,100.00
2022-10-17T17:01:24.091Z,100.00
2022-10-17T17:04:01.459Z,100.00
2022-10-17T17:06:32.548Z,100.00
2022-10-17T17:09:01.475Z,100.00
2022-10-17T17:11:31.918Z,100.00
2022-10-17T17:14:03.927Z,100.00
2022-10-17T17:16:35.237Z,100.00
2022-10-17T17:19:14.243Z,100.00
2022-10-17T17:21:47.876Z,100.00
2022-10-17T17:46:41.201Z,100.00
2022-10-17T17:49:11.147Z,100.00
2022-10-17T17:51:41.842Z,100.00
2022-10-17T17:54:12.817Z,100.00
2022-10-17T17:56:41.821Z,100.00
2022-10-17T17:59:14.220Z,100.00
2022-10-17T18:01:44.705Z,100.00
2022-10-17T18:04:13.487Z,100.00
2022-10-17T18:06:42.834Z,100.00
2022-10-17T18:09:12.666Z,100.00
2022-10-17T18:11:42.146Z,100.00
2022-10-17T18:14:14.166Z,100.00
2022-10-17T18:16:44.214Z,100.00
2022-10-17T18:19:13.808Z,100.00
2022-10-17T18:21:44.474Z,100.00
2022-10-17T18:24:13.135Z,100.00
2022-10-17T18:26:42.342Z,100.00
2022-10-17T18:29:12.123Z,100.00
2022-10-17T18:31:40.670Z,100.00
2022-10-17T18:34:11.427Z,100.00
2022-10-17T18:36:40.379Z,100.00
2022-10-17T18:39:09.138Z,100.00
2022-10-17T18:41:37.844Z,100.00
2022-10-17T18:44:06.511Z,100.00
2022-10-17T18:46:41.544Z,100.00
2022-10-17T18:49:14.708Z,100.00
2022-10-17T18:51:44.240Z,100.00
2022-10-17T18:54:17.200Z,100.00
2022-10-17T18:56:46.215Z,100.00
2022-10-17T18:59:14.799Z,100.00
2022-10-17T19:01:43.831Z,100.00
2022-10-17T19:04:14.550Z,100.00
2022-10-17T19:06:43.918Z,100.00
2022-10-17T19:09:14.483Z,100.00
2022-10-17T19:11:43.586Z,100.00
2022-10-17T19:14:14.221Z,100.00
2022-10-17T19:16:45.128Z,100.00
2022-10-17T19:19:17.805Z,100.00
2022-10-17T19:21:46.643Z,100.00
2022-10-17T19:24:17.421Z,100.00
2022-10-17T19:26:47.544Z,100.00
2022-10-17T19:29:18.266Z,100.00
2022-10-17T19:31:48.031Z,100.00
2022-10-17T19:34:20.589Z,100.00
2022-10-17T19:36:49.093Z,100.00
2022-10-17T19:39:19.989Z,100.00
2022-10-17T19:41:50.080Z,100.00
2022-10-17T19:44:19.250Z,100.00
2022-10-17T19:46:49.711Z,100.00
2022-10-17T19:49:19.962Z,100.00
2022-10-17T19:51:48.905Z,100.00
2022-10-17T19:54:19.372Z,100.00
2022-10-17T19:56:48.808Z,100.00
2022-10-17T19:59:18.671Z,100.00
2022-10-17T20:01:47.604Z,100.00
2022-10-17T20:04:16.374Z,100.00
2022-10-17T20:06:46.601Z,100.00
2022-10-17T20:09:17.103Z,100.00
2022-10-17T20:11:46.294Z,100.00
2022-10-17T20:14:15.247Z,100.00
2022-10-17T20:16:45.163Z,100.00
2022-10-17T20:19:15.859Z,100.00
2022-10-17T20:21:46.535Z,100.00
2022-10-17T20:24:18.433Z,100.00
2022-10-17T20:26:47.804Z,100.00
2022-10-17T20:29:21.104Z,100.00
2022-10-17T20:31:50.303Z,100.00
2022-10-17T20:34:20.254Z,100.00
2022-10-17T20:36:51.081Z,100.00
2022-10-17T20:39:21.252Z,100.00
2022-10-17T20:41:50.114Z,100.00
2022-10-17T20:44:18.380Z,100.00
2022-10-17T20:47:00.622Z,100.00
2022-10-17T20:49:31.623Z,100.00
2022-10-17T20:52:03.031Z,100.00
2022-10-17T20:54:32.213Z,100.00
2022-10-17T20:57:03.951Z,100.00
2022-10-17T20:59:34.924Z,100.00
2022-10-17T21:02:03.702Z,100.00
2022-10-17T21:04:45.895Z,100.00
2022-10-17T21:07:17.250Z,100.00
2022-10-17T21:09:47.799Z,100.00
2022-10-17T21:12:26.071Z,100.00
2022-10-17T21:15:06.118Z,100.00
2022-10-17T21:17:35.221Z,100.00
2022-10-17T21:20:03.845Z,100.00
2022-10-17T21:22:35.640Z,100.00
2022-10-17T21:25:04.171Z,100.00
2022-10-17T21:27:32.683Z,100.00
2022-10-17T21:30:01.695Z,100.00
2022-10-17T21:32:40.407Z,100.00
2022-10-17T21:35:16.254Z,100.00
2022-10-17T21:37:46.351Z,100.00
2022-10-17T21:40:15.195Z,100.00
2022-10-17T21:42:44.699Z,100.00
2022-10-17T21:45:24.890Z,100.00
2022-10-17T21:48:12.164Z,100.00
2022-10-17T21:50:42.028Z,100.00
2022-10-17T21:53:12.607Z,100.00
2022-10-17T21:55:43.367Z,100.00
2022-10-17T21:58:11.994Z,100.00
2022-10-17T22:00:48.100Z,100.00
2022-10-17T22:03:18.060Z,100.00
2022-10-17T22:05:47.189Z,100.00
2022-10-17T22:08:16.926Z,100.00
2022-10-17T22:10:45.715Z,100.00
2022-10-17T22:13:16.672Z,100.00
2022-10-17T22:15:54.099Z,100.00
2022-10-17T22:18:24.034Z,100.00
2022-10-17T22:20:53.810Z,100.00
2022-10-17T22:23:25.088Z,100.00
2022-10-17T22:25:57.492Z,100.00
2022-10-17T22:28:27.036Z,100.00
2022-10-17T22:30:55.756Z,100.00
2022-10-17T22:33:24.734Z,100.00
2022-10-17T22:35:53.778Z,100.00
2022-10-17T22:38:26.967Z,100.00
2022-10-17T22:40:56.628Z,100.00
2022-10-17T22:43:26.175Z,100.00
2022-10-17T22:45:56.050Z,100.00
2022-10-17T22:48:25.922Z,100.00
2022-10-17T22:50:55.935Z,100.00
2022-10-17T22:53:26.918Z,100.00
2022-10-17T22:55:59.096Z,100.00
2022-10-17T22:58:29.162Z,100.00
2022-10-17T23:00:58.707Z,100.00
2022-10-17T23:03:29.935Z,100.00
2022-10-17T23:05:59.567Z,100.00
2022-10-17T23:08:28.924Z,100.00
2022-10-17T23:10:58.822Z,100.00
2022-10-17T23:13:27.563Z,100.00
2022-10-17T23:15:57.892Z,100.00
2022-10-17T23:18:28.295Z,100.00
2022-10-17T23:20:59.255Z,100.00
2022-10-17T23:23:36.454Z,100.00
2022-10-17T23:26:08.245Z,100.00
2022-10-17T23:28:37.993Z,100.00
2022-10-17T23:31:18.456Z,100.00
2022-10-17T23:33:48.693Z,100.00
2022-10-17T23:36:20.136Z,100.00
2022-10-17T23:38:52.626Z,100.00
2022-10-17T23:41:26.950Z,100.00
2022-10-17T23:43:55.873Z,100.00
2022-10-17T23:46:27.824Z,100.00
2022-10-17T23:48:57.455Z,100.00
2022-10-17T23:51:28.376Z,100.00
2022-10-17T23:53:56.825Z,100.00
2022-10-17T23:56:29.389Z,100.00
2022-10-17T23:58:58.965Z,100.00
